FelLS Point — WDH5561 — position and weather

sailwx.info

Track history (hours):
 
Tides and Currents Weather Stations Pressure Air Temp Water Temp Dewpoint Dewpoint Depression Visibility Wind Speed Wind Dir Waves Ship Positions

FelLS Point

Owner: Vane Line Bunkering, Inc., Philadelphia, PA. More information available from US FCC via Universal Licensing System.

Last reported at 2018-Feb-21 22:45 UTC. Time now 2018-Feb-22 05:26 UTC.
Position N 40°33' W 074°14'.

Length 33 m; draft 4 m.

Type: Tug. MMSI: 303461000.

Date/timePositionNaut miles runAvg speedWind from/ knotsBaromVisibWave heightAir tempDewpointWater temp
2018-Feb-21 22:45N 40°33' W 074°14'0 0.0
2018-Feb-21 22:24N 40°33' W 074°14'0 0.0
2018-Feb-21 18:26N 40°33' W 074°14'1 1.7
2018-Feb-21 17:53N 40°33' W 074°15'4 3.4
2018-Feb-21 16:49N 40°30' W 074°11'410.6
2018-Feb-21 16:25N 40°30' W 074°06'4 9.6
2018-Feb-21 16:00N 40°33' W 074°02'510.0
2018-Feb-21 15:31N 40°38' W 074°03'3 6.4
2018-Feb-21 15:00N 40°40' W 074°00'0 0.0
2018-Feb-21 14:30N 40°40' W 074°00'0 0.0
2018-Feb-21 14:00N 40°40' W 074°00'0 0.0
2018-Feb-21 13:30N 40°40' W 074°00'0 0.1
2018-Feb-21 13:00N 40°40' W 074°00'0 0.1
2018-Feb-21 12:30N 40°40' W 074°00'0 0.0
2018-Feb-21 12:00N 40°40' W 074°00'0 0.0
2018-Feb-21 11:30N 40°40' W 074°00'0 0.0
2018-Feb-21 11:00N 40°40' W 074°00'0 0.0
2018-Feb-21 10:30N 40°40' W 074°00'0 0.0
2018-Feb-21 10:00N 40°40' W 074°00'0 0.0
2018-Feb-21 09:30N 40°40' W 074°00'0 0.0
2018-Feb-21 09:00N 40°40' W 074°00'0 0.0
2018-Feb-21 08:30N 40°40' W 074°00'0 0.0
2018-Feb-21 08:00N 40°40' W 074°00'0 0.0
2018-Feb-21 07:30N 40°40' W 074°00'0 0.0
2018-Feb-21 07:00N 40°40' W 074°00'0 0.0
2018-Feb-21 06:30N 40°40' W 074°00'0 0.0
2018-Feb-21 06:00N 40°40' W 074°00'3 6.9
2018-Feb-21 05:30N 40°39' W 074°04'5 9.9
2018-Feb-21 04:59N 40°39' W 074°11'4 8.7
2018-Feb-21 04:29N 40°34' W 074°13'3 5.5
2018-Feb-21 03:59N 40°32' W 074°15'0 0.4
2018-Feb-21 03:21N 40°32' W 074°15'1 2.1
2018-Feb-21 02:57N 40°33' W 074°15'1 1.8
2018-Feb-21 02:30N 40°33' W 074°14'1 2.5
2018-Feb-21 01:59N 40°34' W 074°13'2 4.0
2018-Feb-21 01:29N 40°36' W 074°12'3 5.3
2018-Feb-21 01:00N 40°39' W 074°11'4 7.1
2018-Feb-21 00:28N 40°39' W 074°06'4 9.1
2018-Feb-21 00:00N 40°42' W 074°02'611.6
2018-Feb-20 23:30N 40°47' W 073°60'611.9
2018-Feb-20 23:00N 40°53' W 073°56'  
2018-Feb-18 11:46N 40°59' W 073°54'2 7.2
2018-Feb-18 11:29N 40°57' W 073°54'3 7.0
2018-Feb-18 11:00N 40°54' W 073°55'3 6.2
2018-Feb-18 10:30N 40°51' W 073°57'3 6.0
2018-Feb-18 09:58N 40°48' W 073°59'2 5.3
2018-Feb-18 09:30N 40°46' W 074°00'3 5.4
2018-Feb-18 09:00N 40°43' W 074°01'3 5.9
2018-Feb-18 08:30N 40°41' W 074°03'4 7.7
2018-Feb-18 08:00N 40°39' W 074°07'4 7.8
2018-Feb-18 07:30N 40°38' W 074°12'3 4.8
2018-Feb-18 06:56N 40°35' W 074°13'0 0.0
2018-Feb-18 05:36N 40°35' W 074°13'0 0.0
2018-Feb-18 05:28N 40°35' W 074°13'0 0.0
2018-Feb-18 04:58N 40°35' W 074°13'0 0.0
2018-Feb-18 04:20N 40°35' W 074°13'0 0.0
2018-Feb-18 04:00N 40°35' W 074°13'0 0.0
2018-Feb-18 03:27N 40°35' W 074°13'1 1.3
2018-Feb-18 03:00N 40°36' W 074°12'0 0.0
2018-Feb-18 02:30N 40°36' W 074°12'0 0.0
2018-Feb-18 02:00N 40°36' W 074°12'0 0.0
2018-Feb-18 01:30N 40°36' W 074°12'0 0.0
2018-Feb-18 00:59N 40°36' W 074°12'1 1.3
2018-Feb-18 00:27N 40°36' W 074°12'3 7.1
2018-Feb-18 00:00N 40°39' W 074°09'5 9.6
2018-Feb-17 23:31N 40°40' W 074°03'2 4.7
2018-Feb-17 23:00N 40°40' W 074°00'0 0.2
2018-Feb-17 22:30N 40°40' W 074°00'0 0.0
2018-Feb-17 22:00N 40°40' W 074°00'0 0.0
2018-Feb-17 21:30N 40°40' W 074°00'0 0.0
2018-Feb-17 21:00N 40°40' W 074°00'0 0.1
2018-Feb-17 20:30N 40°40' W 074°00'0 0.0
2018-Feb-17 19:59N 40°40' W 074°00'0 0.0
2018-Feb-17 19:30N 40°40' W 074°00'2 4.6
2018-Feb-17 19:00N 40°40' W 074°03'3 5.6
2018-Feb-17 18:29N 40°39' W 074°07'0 0.0
2018-Feb-17 17:59N 40°39' W 074°07'2 3.3
2018-Feb-17 17:30N 40°39' W 074°05'4 7.1
2018-Feb-17 17:00N 40°39' W 074°09'4 7.8
2018-Feb-17 16:29N 40°36' W 074°12'0 0.9
2018-Feb-17 15:59N 40°35' W 074°13'2 4.3
2018-Feb-17 15:30N 40°37' W 074°12'3 7.0
2018-Feb-17 15:00N 40°39' W 074°08'4 8.4
2018-Feb-17 14:30N 40°40' W 074°03'4 8.2
2018-Feb-17 14:00N 40°44' W 074°01'4 7.7
2018-Feb-17 13:30N 40°48' W 073°59'4 7.8
2018-Feb-17 12:59N 40°51' W 073°57'2 5.0
2018-Feb-17 12:29N 40°54' W 073°55'0 0.1
2018-Feb-17 11:59N 40°54' W 073°55'0 0.1
2018-Feb-17 11:23N 40°53' W 073°56'0 0.1
2018-Feb-17 10:59N 40°53' W 073°56'0 0.0
2018-Feb-17 10:29N 40°53' W 073°56'0 0.0
2018-Feb-17 09:50N 40°53' W 073°56'0 0.0
2018-Feb-17 09:29N 40°53' W 073°56'0 0.0
2018-Feb-17 08:59N 40°53' W 073°56'0 0.0
2018-Feb-17 08:29N 40°53' W 073°56'0 0.4
2018-Feb-17 07:53N 40°54' W 073°56'0 0.0
2018-Feb-17 07:29N 40°54' W 073°56'0 0.0
2018-Feb-17 06:59N 40°54' W 073°56'0 0.1
2018-Feb-17 06:29N 40°54' W 073°56'0 0.0
2018-Feb-17 05:56N 40°54' W 073°56'0 0.0
2018-Feb-17 05:26N 40°54' W 073°56'0 0.0
2018-Feb-17 04:59N 40°54' W 073°56'0 0.0
2018-Feb-17 04:11N 40°54' W 073°55'0 0.0
2018-Feb-17 03:47N 40°54' W 073°55'0 0.1
2018-Feb-17 03:26N 40°54' W 073°55'0 0.3
2018-Feb-17 02:57N 40°54' W 073°56'  
2018-Feb-14 17:58N 40°59' W 073°54'4 7.0
2018-Feb-14 17:27N 40°55' W 073°55'3 7.2
2018-Feb-14 17:00N 40°52' W 073°57'4 7.3
2018-Feb-14 16:30N 40°49' W 073°58'4 7.7
2018-Feb-14 16:00N 40°45' W 074°01'4 7.7
2018-Feb-14 15:31N 40°42' W 074°02'3 5.1
2018-Feb-14 15:01N 40°39' W 074°03'4 7.9
2018-Feb-14 14:31N 40°39' W 074°08'3 6.6
2018-Feb-14 14:01N 40°37' W 074°12'4 7.5
2018-Feb-14 13:30N 40°33' W 074°13'2 3.6
2018-Feb-14 12:59N 40°32' W 074°15'0 0.0
2018-Feb-14 07:47N 40°32' W 074°15'0 0.0
2018-Feb-14 07:30N 40°32' W 074°15'0 0.0
2018-Feb-14 06:47N 40°32' W 074°15'0 0.0
2018-Feb-14 06:30N 40°32' W 074°15'4 7.9
2018-Feb-14 06:00N 40°36' W 074°12'4 7.9
2018-Feb-14 05:30N 40°39' W 074°09'5 9.5
2018-Feb-14 05:00N 40°39' W 074°02'2 4.1
2018-Feb-14 04:30N 40°40' W 074°00'0 0.0
2018-Feb-14 04:00N 40°40' W 074°00'0 0.1
2018-Feb-14 03:30N 40°40' W 074°00'5 9.4
2018-Feb-14 03:00N 40°39' W 074°06'5 9.4
2018-Feb-14 02:30N 40°37' W 074°12'4 8.9
2018-Feb-14 02:00N 40°33' W 074°14'1 1.2
2018-Feb-14 01:30N 40°33' W 074°15'0 0.0
2018-Feb-14 01:00N 40°33' W 074°15'0 0.0
2018-Feb-14 00:29N 40°33' W 074°15'0 0.0
2018-Feb-14 00:00N 40°33' W 074°15'0 0.0
2018-Feb-13 23:29N 40°33' W 074°15'0 0.0
2018-Feb-13 23:00N 40°33' W 074°15'0 0.0
2018-Feb-13 22:29N 40°33' W 074°15'0 0.0
2018-Feb-13 21:44N 40°33' W 074°15'0 0.0
2018-Feb-13 20:25N 40°33' W 074°15'2 5.2
2018-Feb-13 19:59N 40°35' W 074°13'5 9.4
2018-Feb-13 19:30N 40°39' W 074°11'510.3
2018-Feb-13 19:00N 40°39' W 074°04'3 6.3
2018-Feb-13 18:30N 40°40' W 074°00'0 0.0
2018-Feb-13 18:00N 40°40' W 074°00'0 0.0
2018-Feb-13 17:30N 40°40' W 074°00'0 0.0
2018-Feb-13 17:00N 40°40' W 074°00'0 0.0
2018-Feb-13 16:30N 40°40' W 074°00'0 0.0
2018-Feb-13 16:00N 40°40' W 074°00'0 0.0
2018-Feb-13 15:30N 40°40' W 074°00'0 0.0
2018-Feb-13 15:00N 40°40' W 074°00'4 8.7
2018-Feb-13 14:30N 40°39' W 074°06'5 9.5
2018-Feb-13 14:00N 40°38' W 074°12'5 8.7
2018-Feb-13 13:27N 40°33' W 074°13'2 3.9
2018-Feb-13 12:59N 40°32' W 074°15'0 0.0
2018-Feb-12 17:38N 40°33' W 074°15'1 9.1
2018-Feb-12 17:30N 40°33' W 074°14'4 8.3
2018-Feb-12 17:00N 40°37' W 074°12'4 6.9
2018-Feb-12 16:29N 40°39' W 074°08'3 5.8
2018-Feb-12 16:00N 40°39' W 074°04'5 9.5
2018-Feb-12 15:31N 40°42' W 073°60'3 5.8
2018-Feb-12 15:00N 40°44' W 073°56'0 0.1
2018-Feb-12 14:30N 40°44' W 073°57'0 0.0
2018-Feb-12 14:00N 40°44' W 073°57'0 0.0
2018-Feb-12 13:30N 40°44' W 073°57'0 0.0
2018-Feb-12 13:00N 40°44' W 073°57'0 0.0
2018-Feb-12 12:26N 40°44' W 073°57'0 0.0
2018-Feb-12 12:00N 40°44' W 073°57'0 0.0
2018-Feb-12 11:29N 40°44' W 073°57'0 0.0
2018-Feb-12 10:57N 40°44' W 073°57'0 0.0
2018-Feb-12 10:27N 40°44' W 073°57'0 0.0
2018-Feb-12 09:57N 40°44' W 073°57'0 0.0
2018-Feb-12 09:27N 40°44' W 073°57'0 0.0
2018-Feb-12 09:00N 40°44' W 073°57'0 0.0
2018-Feb-12 08:30N 40°44' W 073°57'0 0.1
2018-Feb-12 08:00N 40°44' W 073°57'1 2.6
2018-Feb-12 07:30N 40°44' W 073°58'4 8.1
2018-Feb-12 07:00N 40°41' W 074°02'4 7.5
2018-Feb-12 06:30N 40°39' W 074°06'4 7.6
2018-Feb-12 05:58N 40°38' W 074°11'3 7.4
2018-Feb-12 05:30N 40°35' W 074°12'  
Track history (hours):
 
Tides and Currents Weather Stations Pressure Air Temp Water Temp Dewpoint Dewpoint Depression Visibility Wind Speed Wind Dir Waves Ship Positions

FelLS Point

Owner: Vane Line Bunkering, Inc., Philadelphia, PA. More information available from US FCC via Universal Licensing System.

Last reported at 2018-Feb-21 22:45 UTC. Time now 2018-Feb-22 05:26 UTC.
Position N 40°33' W 074°14'.

Length 33 m; draft 4 m.

Type: Tug. MMSI: 303461000.

Date/timePositionNaut miles runAvg speedWind from/ knotsBaromVisibWave heightAir tempDewpointWater temp
2018-Feb-21 22:45N 40°33' W 074°14'0 0.0
2018-Feb-21 22:24N 40°33' W 074°14'0 0.0
2018-Feb-21 18:26N 40°33' W 074°14'1 1.7
2018-Feb-21 17:53N 40°33' W 074°15'4 3.4
2018-Feb-21 16:49N 40°30' W 074°11'410.6
2018-Feb-21 16:25N 40°30' W 074°06'4 9.6
2018-Feb-21 16:00N 40°33' W 074°02'510.0
2018-Feb-21 15:31N 40°38' W 074°03'3 6.4
2018-Feb-21 15:00N 40°40' W 074°00'0 0.0
2018-Feb-21 14:30N 40°40' W 074°00'0 0.0
2018-Feb-21 14:00N 40°40' W 074°00'0 0.0
2018-Feb-21 13:30N 40°40' W 074°00'0 0.1
2018-Feb-21 13:00N 40°40' W 074°00'0 0.1
2018-Feb-21 12:30N 40°40' W 074°00'0 0.0
2018-Feb-21 12:00N 40°40' W 074°00'0 0.0
2018-Feb-21 11:30N 40°40' W 074°00'0 0.0
2018-Feb-21 11:00N 40°40' W 074°00'0 0.0
2018-Feb-21 10:30N 40°40' W 074°00'0 0.0
2018-Feb-21 10:00N 40°40' W 074°00'0 0.0
2018-Feb-21 09:30N 40°40' W 074°00'0 0.0
2018-Feb-21 09:00N 40°40' W 074°00'0 0.0
2018-Feb-21 08:30N 40°40' W 074°00'0 0.0
2018-Feb-21 08:00N 40°40' W 074°00'0 0.0
2018-Feb-21 07:30N 40°40' W 074°00'0 0.0
2018-Feb-21 07:00N 40°40' W 074°00'0 0.0
2018-Feb-21 06:30N 40°40' W 074°00'0 0.0
2018-Feb-21 06:00N 40°40' W 074°00'3 6.9
2018-Feb-21 05:30N 40°39' W 074°04'5 9.9
2018-Feb-21 04:59N 40°39' W 074°11'4 8.7
2018-Feb-21 04:29N 40°34' W 074°13'3 5.5
2018-Feb-21 03:59N 40°32' W 074°15'0 0.4
2018-Feb-21 03:21N 40°32' W 074°15'1 2.1
2018-Feb-21 02:57N 40°33' W 074°15'1 1.8
2018-Feb-21 02:30N 40°33' W 074°14'1 2.5
2018-Feb-21 01:59N 40°34' W 074°13'2 4.0
2018-Feb-21 01:29N 40°36' W 074°12'3 5.3
2018-Feb-21 01:00N 40°39' W 074°11'4 7.1
2018-Feb-21 00:28N 40°39' W 074°06'4 9.1
2018-Feb-21 00:00N 40°42' W 074°02'611.6
2018-Feb-20 23:30N 40°47' W 073°60'611.9
2018-Feb-20 23:00N 40°53' W 073°56'  
2018-Feb-18 11:46N 40°59' W 073°54'2 7.2
2018-Feb-18 11:29N 40°57' W 073°54'3 7.0
2018-Feb-18 11:00N 40°54' W 073°55'3 6.2
2018-Feb-18 10:30N 40°51' W 073°57'3 6.0
2018-Feb-18 09:58N 40°48' W 073°59'2 5.3
2018-Feb-18 09:30N 40°46' W 074°00'3 5.4
2018-Feb-18 09:00N 40°43' W 074°01'3 5.9
2018-Feb-18 08:30N 40°41' W 074°03'4 7.7
2018-Feb-18 08:00N 40°39' W 074°07'4 7.8
2018-Feb-18 07:30N 40°38' W 074°12'3 4.8
2018-Feb-18 06:56N 40°35' W 074°13'0 0.0
2018-Feb-18 05:36N 40°35' W 074°13'0 0.0
2018-Feb-18 05:28N 40°35' W 074°13'0 0.0
2018-Feb-18 04:58N 40°35' W 074°13'0 0.0
2018-Feb-18 04:20N 40°35' W 074°13'0 0.0
2018-Feb-18 04:00N 40°35' W 074°13'0 0.0
2018-Feb-18 03:27N 40°35' W 074°13'1 1.3
2018-Feb-18 03:00N 40°36' W 074°12'0 0.0
2018-Feb-18 02:30N 40°36' W 074°12'0 0.0
2018-Feb-18 02:00N 40°36' W 074°12'0 0.0
2018-Feb-18 01:30N 40°36' W 074°12'0 0.0
2018-Feb-18 00:59N 40°36' W 074°12'1 1.3
2018-Feb-18 00:27N 40°36' W 074°12'3 7.1
2018-Feb-18 00:00N 40°39' W 074°09'5 9.6
2018-Feb-17 23:31N 40°40' W 074°03'2 4.7
2018-Feb-17 23:00N 40°40' W 074°00'0 0.2
2018-Feb-17 22:30N 40°40' W 074°00'0 0.0
2018-Feb-17 22:00N 40°40' W 074°00'0 0.0
2018-Feb-17 21:30N 40°40' W 074°00'0 0.0
2018-Feb-17 21:00N 40°40' W 074°00'0 0.1
2018-Feb-17 20:30N 40°40' W 074°00'0 0.0
2018-Feb-17 19:59N 40°40' W 074°00'0 0.0
2018-Feb-17 19:30N 40°40' W 074°00'2 4.6
2018-Feb-17 19:00N 40°40' W 074°03'3 5.6
2018-Feb-17 18:29N 40°39' W 074°07'0 0.0
2018-Feb-17 17:59N 40°39' W 074°07'2 3.3
2018-Feb-17 17:30N 40°39' W 074°05'4 7.1
2018-Feb-17 17:00N 40°39' W 074°09'4 7.8
2018-Feb-17 16:29N 40°36' W 074°12'0 0.9
2018-Feb-17 15:59N 40°35' W 074°13'2 4.3
2018-Feb-17 15:30N 40°37' W 074°12'3 7.0
2018-Feb-17 15:00N 40°39' W 074°08'4 8.4
2018-Feb-17 14:30N 40°40' W 074°03'4 8.2
2018-Feb-17 14:00N 40°44' W 074°01'4 7.7
2018-Feb-17 13:30N 40°48' W 073°59'4 7.8
2018-Feb-17 12:59N 40°51' W 073°57'2 5.0
2018-Feb-17 12:29N 40°54' W 073°55'0 0.1
2018-Feb-17 11:59N 40°54' W 073°55'0 0.1
2018-Feb-17 11:23N 40°53' W 073°56'0 0.1
2018-Feb-17 10:59N 40°53' W 073°56'0 0.0
2018-Feb-17 10:29N 40°53' W 073°56'0 0.0
2018-Feb-17 09:50N 40°53' W 073°56'0 0.0
2018-Feb-17 09:29N 40°53' W 073°56'0 0.0
2018-Feb-17 08:59N 40°53' W 073°56'0 0.0
2018-Feb-17 08:29N 40°53' W 073°56'0 0.4
2018-Feb-17 07:53N 40°54' W 073°56'0 0.0
2018-Feb-17 07:29N 40°54' W 073°56'0 0.0
2018-Feb-17 06:59N 40°54' W 073°56'0 0.1
2018-Feb-17 06:29N 40°54' W 073°56'0 0.0
2018-Feb-17 05:56N 40°54' W 073°56'0 0.0
2018-Feb-17 05:26N 40°54' W 073°56'0 0.0
2018-Feb-17 04:59N 40°54' W 073°56'0 0.0
2018-Feb-17 04:11N 40°54' W 073°55'0 0.0
2018-Feb-17 03:47N 40°54' W 073°55'0 0.1
2018-Feb-17 03:26N 40°54' W 073°55'0 0.3
2018-Feb-17 02:57N 40°54' W 073°56'  
2018-Feb-14 17:58N 40°59' W 073°54'4 7.0
2018-Feb-14 17:27N 40°55' W 073°55'3 7.2
2018-Feb-14 17:00N 40°52' W 073°57'4 7.3
2018-Feb-14 16:30N 40°49' W 073°58'4 7.7
2018-Feb-14 16:00N 40°45' W 074°01'4 7.7
2018-Feb-14 15:31N 40°42' W 074°02'3 5.1
2018-Feb-14 15:01N 40°39' W 074°03'4 7.9
2018-Feb-14 14:31N 40°39' W 074°08'3 6.6
2018-Feb-14 14:01N 40°37' W 074°12'4 7.5
2018-Feb-14 13:30N 40°33' W 074°13'2 3.6
2018-Feb-14 12:59N 40°32' W 074°15'0 0.0
2018-Feb-14 07:47N 40°32' W 074°15'0 0.0
2018-Feb-14 07:30N 40°32' W 074°15'0 0.0
2018-Feb-14 06:47N 40°32' W 074°15'0 0.0
2018-Feb-14 06:30N 40°32' W 074°15'4 7.9
2018-Feb-14 06:00N 40°36' W 074°12'4 7.9
2018-Feb-14 05:30N 40°39' W 074°09'5 9.5
2018-Feb-14 05:00N 40°39' W 074°02'2 4.1
2018-Feb-14 04:30N 40°40' W 074°00'0 0.0
2018-Feb-14 04:00N 40°40' W 074°00'0 0.1
2018-Feb-14 03:30N 40°40' W 074°00'5 9.4
2018-Feb-14 03:00N 40°39' W 074°06'5 9.4
2018-Feb-14 02:30N 40°37' W 074°12'4 8.9
2018-Feb-14 02:00N 40°33' W 074°14'1 1.2
2018-Feb-14 01:30N 40°33' W 074°15'0 0.0
2018-Feb-14 01:00N 40°33' W 074°15'0 0.0
2018-Feb-14 00:29N 40°33' W 074°15'0 0.0
2018-Feb-14 00:00N 40°33' W 074°15'0 0.0
2018-Feb-13 23:29N 40°33' W 074°15'0 0.0
2018-Feb-13 23:00N 40°33' W 074°15'0 0.0
2018-Feb-13 22:29N 40°33' W 074°15'0 0.0
2018-Feb-13 21:44N 40°33' W 074°15'0 0.0
2018-Feb-13 20:25N 40°33' W 074°15'2 5.2
2018-Feb-13 19:59N 40°35' W 074°13'5 9.4
2018-Feb-13 19:30N 40°39' W 074°11'510.3
2018-Feb-13 19:00N 40°39' W 074°04'3 6.3
2018-Feb-13 18:30N 40°40' W 074°00'0 0.0
2018-Feb-13 18:00N 40°40' W 074°00'0 0.0
2018-Feb-13 17:30N 40°40' W 074°00'0 0.0
2018-Feb-13 17:00N 40°40' W 074°00'0 0.0
2018-Feb-13 16:30N 40°40' W 074°00'0 0.0
2018-Feb-13 16:00N 40°40' W 074°00'0 0.0
2018-Feb-13 15:30N 40°40' W 074°00'0 0.0
2018-Feb-13 15:00N 40°40' W 074°00'4 8.7
2018-Feb-13 14:30N 40°39' W 074°06'5 9.5
2018-Feb-13 14:00N 40°38' W 074°12'5 8.7
2018-Feb-13 13:27N 40°33' W 074°13'2 3.9
2018-Feb-13 12:59N 40°32' W 074°15'0 0.0
2018-Feb-12 17:38N 40°33' W 074°15'1 9.1
2018-Feb-12 17:30N 40°33' W 074°14'4 8.3
2018-Feb-12 17:00N 40°37' W 074°12'4 6.9
2018-Feb-12 16:29N 40°39' W 074°08'3 5.8
2018-Feb-12 16:00N 40°39' W 074°04'5 9.5
2018-Feb-12 15:31N 40°42' W 073°60'3 5.8
2018-Feb-12 15:00N 40°44' W 073°56'0 0.1
2018-Feb-12 14:30N 40°44' W 073°57'0 0.0
2018-Feb-12 14:00N 40°44' W 073°57'0 0.0
2018-Feb-12 13:30N 40°44' W 073°57'0 0.0
2018-Feb-12 13:00N 40°44' W 073°57'0 0.0
2018-Feb-12 12:26N 40°44' W 073°57'0 0.0
2018-Feb-12 12:00N 40°44' W 073°57'0 0.0
2018-Feb-12 11:29N 40°44' W 073°57'0 0.0
2018-Feb-12 10:57N 40°44' W 073°57'0 0.0
2018-Feb-12 10:27N 40°44' W 073°57'0 0.0
2018-Feb-12 09:57N 40°44' W 073°57'0 0.0
2018-Feb-12 09:27N 40°44' W 073°57'0 0.0
2018-Feb-12 09:00N 40°44' W 073°57'0 0.0
2018-Feb-12 08:30N 40°44' W 073°57'0 0.1
2018-Feb-12 08:00N 40°44' W 073°57'1 2.6
2018-Feb-12 07:30N 40°44' W 073°58'4 8.1
2018-Feb-12 07:00N 40°41' W 074°02'4 7.5
2018-Feb-12 06:30N 40°39' W 074°06'4 7.6
2018-Feb-12 05:58N 40°38' W 074°11'3 7.4
2018-Feb-12 05:30N 40°35' W 074°12'  

Dump ship's entire track history